Hlavní strana
METAR-TAF:

METAR-TAF

Letiště :

Ženeva, Švýcarsko

Letiště Ženeva

zeměpisná šířka: 46-15N, zeměpisná délka: 006-08E, výška: 420 m

Aktuální stav počasí

Zpráva byla vytvořena před 20 minutami, v 03:20 UTC
Severovýchodní vítr 7 kt
Teplota 7°C
Vlhkost vzduchu 87%
Tlak 1024 hPa
Viditelnost 10 km a více
Zataženo ve výšce 3900 ft

METAR: LSGG 230320Z AUTO 04007KT 9999 // OVC039 07/05 Q1024 NOSIG

Čas: 04:40 (03:40 UTC)

Předpověď počasí

Zpráva byla vytvořena před 1 hodinou a 15 minutami, v 02:25 UTC
Předpověď platná od 23 v 03 UTC do 24 v 09 UTC
vítr z různých směrů 3 kt
Viditelnost 10 km a více
Skoro jasno ve výšce 4000 ft
Změna
od 23 v 17 UTC do 23 v 19 UTC
Viditelnost 10 km a více
Žádná oblačnost pod 1500 m, nevyskytují se cumulonimby.
Pravděpodobnost 30%
od 24 v 00 UTC do 24 v 08 UTC
Viditelnost: 0800 m
ve výšce 300 ft
mlha

TAF: LSGG 230225Z 2303/2409 VRB03KT 9999 FEW040 TX10/2315Z TN03/2306Z TN01/2406Z BECMG 2317/2319 CAVOK PROB30 2400/2408 0800 FG VV003

Stav a předpovědi počasí z více než 4 000 letišť (zprávy METAR a TAF).

Červené a žluté tečky na mapě představují dostupné meteorologické stanice.

Když kurzor umístíte na tečku, zobrazí se název stanice.

Pak kliknutím zobrazíte stav a předpověď počasí.

Chcete-li změnit mapu, kliknutím na zelené tlačítko se znaménkem +mapu přiblížíte, kliknutím na zelené tlačítko se znaménkem – mapu oddálíte a kliknutím na zelené šipky přejdete na sousední mapy.


METAR-TAF: